createdAt,value
2018-08-20T00:01:31.731Z,100580.89
2018-08-20T00:04:03.151Z,100577.44
2018-08-20T00:06:42.955Z,100579.67
2018-08-20T00:09:11.523Z,100576.70
2018-08-20T00:11:39.857Z,100574.87
2018-08-20T00:14:08.288Z,100575.73
2018-08-20T00:16:36.704Z,100573.56
2018-08-20T00:19:05.184Z,100570.43
2018-08-20T00:21:33.606Z,100575.87
2018-08-20T00:24:02.075Z,100586.27
2018-08-20T00:26:30.570Z,100576.42
2018-08-20T00:28:58.910Z,100571.22
2018-08-20T00:31:27.276Z,100569.92
2018-08-20T00:33:56.263Z,100574.75
2018-08-20T00:36:24.639Z,100574.53
2018-08-20T00:38:53.041Z,100579.95
2018-08-20T00:41:21.407Z,100573.23
2018-08-20T00:43:50.059Z,100568.95
2018-08-20T00:46:18.481Z,100573.16
2018-08-20T00:48:46.822Z,100570.56
2018-08-20T00:51:15.243Z,100571.47
2018-08-20T00:53:43.696Z,100573.59
2018-08-20T00:56:12.076Z,100577.35
2018-08-20T00:58:40.483Z,100570.86
2018-08-20T01:01:08.950Z,100576.42
2018-08-20T01:03:37.264Z,100578.65
2018-08-20T01:06:05.699Z,100579.02
2018-08-20T01:08:34.131Z,100580.60
2018-08-20T01:11:02.517Z,100578.87
2018-08-20T01:13:30.884Z,100580.06
2018-08-20T01:15:59.344Z,100569.78
2018-08-20T01:18:27.685Z,100572.59
2018-08-20T01:20:56.076Z,100571.73
2018-08-20T01:23:24.507Z,100570.75
2018-08-20T01:25:52.948Z,100572.95
2018-08-20T01:28:21.359Z,100570.36
2018-08-20T01:30:49.733Z,100571.66
2018-08-20T01:33:18.115Z,100568.70
2018-08-20T01:35:46.476Z,100566.64
2018-08-20T01:38:14.786Z,100567.55
2018-08-20T01:40:43.144Z,100563.28
2018-08-20T01:43:11.524Z,100558.73
2018-08-20T01:45:39.874Z,100560.14
2018-08-20T01:48:08.266Z,100559.53
2018-08-20T01:50:36.654Z,100553.51
2018-08-20T01:53:05.029Z,100555.56
2018-08-20T01:55:33.417Z,100562.34
2018-08-20T01:58:01.962Z,100559.46
2018-08-20T02:00:30.355Z,100554.80
2018-08-20T02:03:02.756Z,100555.09
2018-08-20T02:05:31.163Z,100559.09
2018-08-20T02:07:59.644Z,100553.44
2018-08-20T02:10:28.600Z,100552.50
2018-08-20T02:12:56.979Z,100548.13
2018-08-20T02:15:26.362Z,100550.58
2018-08-20T02:17:56.920Z,100547.91
2018-08-20T02:20:25.304Z,100545.21
2018-08-20T02:22:53.717Z,100542.07
2018-08-20T02:25:22.140Z,100546.18
2018-08-20T02:27:50.536Z,100533.12
2018-08-20T02:30:18.900Z,100533.88
2018-08-20T02:32:47.296Z,100534.16
2018-08-20T02:35:15.730Z,100522.68
2018-08-20T02:37:47.272Z,100526.31
2018-08-20T02:40:17.046Z,100517.61
2018-08-20T02:42:45.458Z,100520.97
2018-08-20T02:45:16.189Z,100519.27
2018-08-20T02:47:45.063Z,100518.81
2018-08-20T02:50:14.821Z,100520.86
2018-08-20T02:52:43.944Z,100515.98
2018-08-20T02:55:12.662Z,100515.22
2018-08-20T02:57:41.078Z,100512.91
2018-08-20T03:00:12.445Z,100508.55
2018-08-20T03:02:41.011Z,100505.95
2018-08-20T03:05:10.424Z,100508.18
2018-08-20T03:07:39.078Z,100498.70
2018-08-20T03:10:09.353Z,100497.13
2018-08-20T03:12:37.808Z,100495.76
2018-08-20T03:15:07.291Z,100497.73
2018-08-20T03:17:35.715Z,100494.47
2018-08-20T03:20:04.167Z,100498.30
2018-08-20T03:22:34.816Z,100501.57
2018-08-20T03:25:03.259Z,100493.09
2018-08-20T03:27:31.749Z,100492.08
2018-08-20T03:30:00.493Z,100487.63
2018-08-20T03:32:29.290Z,100489.13
2018-08-20T03:34:57.657Z,100488.86
2018-08-20T03:37:26.028Z,100485.86
2018-08-20T03:39:54.766Z,100486.61
2018-08-20T03:42:23.070Z,100486.53
2018-08-20T03:44:52.619Z,100486.92
2018-08-20T03:47:21.548Z,100486.53
2018-08-20T03:49:50.321Z,100486.06
2018-08-20T03:52:18.797Z,100481.73
2018-08-20T03:54:47.164Z,100490.25
2018-08-20T03:57:16.632Z,100492.84
2018-08-20T03:59:45.868Z,100499.34
2018-08-20T04:02:14.243Z,100490.98
2018-08-20T04:04:42.559Z,100494.14
2018-08-20T04:07:10.937Z,100502.62
2018-08-20T04:09:39.352Z,100500.09
2018-08-20T04:12:08.017Z,100504.31
2018-08-20T04:14:36.712Z,100500.84
2018-08-20T04:17:05.124Z,100504.67
2018-08-20T04:19:33.462Z,100502.34
2018-08-20T04:22:01.933Z,100500.95
2018-08-20T04:24:30.292Z,100512.20
2018-08-20T04:26:58.672Z,100518.08
2018-08-20T04:29:27.058Z,100516.02
2018-08-20T04:31:55.468Z,100508.97
2018-08-20T04:34:23.868Z,100515.79
2018-08-20T04:36:52.231Z,100522.41
2018-08-20T04:39:20.882Z,100523.91
2018-08-20T04:41:49.599Z,100521.31
2018-08-20T04:44:17.987Z,100528.72
2018-08-20T04:46:46.307Z,100530.30
2018-08-20T04:49:14.675Z,100535.49
2018-08-20T04:51:43.096Z,100531.78
2018-08-20T04:54:11.505Z,100540.34
2018-08-20T04:56:39.954Z,100545.53
2018-08-20T04:59:08.331Z,100544.31
2018-08-20T05:01:36.755Z,100545.90
2018-08-20T05:04:05.275Z,100548.03
2018-08-20T05:06:33.509Z,100548.69
2018-08-20T05:09:02.112Z,100550.00
2018-08-20T05:11:31.452Z,100556.31
2018-08-20T05:13:59.827Z,100558.92
2018-08-20T05:16:28.219Z,100560.22
2018-08-20T05:18:56.683Z,100553.76
2018-08-20T05:21:25.050Z,100552.41
2018-08-20T05:23:53.483Z,100553.36
2018-08-20T05:26:22.025Z,100556.72
2018-08-20T05:28:50.371Z,100563.02
2018-08-20T05:31:18.720Z,100557.66
2018-08-20T05:33:47.033Z,100560.62
2018-08-20T05:36:15.411Z,100569.92
2018-08-20T05:38:43.760Z,100571.42
2018-08-20T05:41:12.125Z,100560.26
2018-08-20T05:43:40.546Z,100578.75
2018-08-20T05:46:08.914Z,100574.30
2018-08-20T05:48:37.419Z,100583.13
2018-08-20T05:51:05.947Z,100581.84
2018-08-20T05:53:34.346Z,100572.92
2018-08-20T05:56:02.679Z,100584.55
2018-08-20T05:58:31.159Z,100586.34
2018-08-20T06:00:59.609Z,100581.88
2018-08-20T06:03:27.980Z,100587.92
2018-08-20T06:05:56.391Z,100585.98
2018-08-20T06:08:25.120Z,100591.00
2018-08-20T06:10:53.546Z,100588.23
2018-08-20T06:13:22.063Z,100594.73
2018-08-20T06:15:50.491Z,100595.93
2018-08-20T06:18:18.871Z,100591.00
2018-08-20T06:20:47.320Z,100590.28
2018-08-20T06:23:15.699Z,100591.12
2018-08-20T06:25:44.132Z,100589.73
2018-08-20T06:28:12.580Z,100588.16
2018-08-20T06:30:41.033Z,100591.59
2018-08-20T06:33:09.531Z,100593.64
2018-08-20T06:35:37.925Z,100600.23
2018-08-20T06:38:06.356Z,100598.30
2018-08-20T06:40:34.799Z,100594.66
2018-08-20T06:43:03.105Z,100603.22
2018-08-20T06:45:31.490Z,100605.22
2018-08-20T06:48:00.010Z,100595.12
2018-08-20T06:50:28.364Z,100605.22
2018-08-20T06:52:56.820Z,100610.55
2018-08-20T06:55:25.238Z,100608.69
2018-08-20T06:57:53.615Z,100611.09
2018-08-20T07:00:22.016Z,100610.17
2018-08-20T07:02:50.435Z,100617.70
2018-08-20T07:05:18.954Z,100614.46
2018-08-20T07:07:47.360Z,100612.41
2018-08-20T07:10:15.754Z,100608.78
2018-08-20T07:12:44.175Z,100620.11
2018-08-20T07:15:14.203Z,100616.59
2018-08-20T07:17:42.641Z,100623.85
2018-08-20T07:20:12.507Z,100627.09
2018-08-20T07:22:40.958Z,100629.42
2018-08-20T07:25:09.954Z,100634.47
2018-08-20T07:27:38.726Z,100628.70
2018-08-20T07:30:09.249Z,100633.98
2018-08-20T07:32:37.629Z,100636.50
2018-08-20T07:35:06.423Z,100636.03
2018-08-20T07:37:34.789Z,100650.73
2018-08-20T07:40:03.200Z,100649.45
2018-08-20T07:42:31.606Z,100654.92
2018-08-20T07:44:59.894Z,100652.96
2018-08-20T07:47:28.267Z,100649.89
2018-08-20T07:49:56.663Z,100656.05
2018-08-20T07:52:25.059Z,100654.92
2018-08-20T07:54:53.468Z,100653.78
2018-08-20T07:57:21.826Z,100661.03
2018-08-20T07:59:50.269Z,100657.87
2018-08-20T08:02:18.683Z,100657.45
2018-08-20T08:04:47.092Z,100657.06
2018-08-20T08:07:15.508Z,100656.50
2018-08-20T08:09:43.929Z,100656.11
2018-08-20T08:12:12.372Z,100656.11
2018-08-20T08:14:40.808Z,100660.77
2018-08-20T08:17:09.229Z,100665.90
2018-08-20T08:19:37.667Z,100660.45
2018-08-20T08:22:06.291Z,100669.07
2018-08-20T08:24:34.753Z,100665.54
2018-08-20T08:27:03.162Z,100663.97
2018-08-20T08:29:31.586Z,100667.68
2018-08-20T08:32:00.244Z,100671.30
2018-08-20T08:34:28.707Z,100668.41
2018-08-20T08:36:57.422Z,100674.67
2018-08-20T08:39:25.805Z,100667.76
2018-08-20T08:41:54.258Z,100667.96
2018-08-20T08:44:22.671Z,100675.52
2018-08-20T08:46:51.057Z,100674.87
2018-08-20T08:49:19.472Z,100672.62
2018-08-20T08:51:48.182Z,100673.63
2018-08-20T08:54:16.616Z,100682.11
2018-08-20T08:56:45.003Z,100672.28
2018-08-20T08:59:13.459Z,100678.80
2018-08-20T09:04:09.259Z,100683.34
2018-08-20T09:06:37.668Z,100675.95
2018-08-20T09:09:07.269Z,100676.63
2018-08-20T09:11:35.955Z,100686.03
2018-08-20T09:14:04.413Z,100687.39
2018-08-20T09:16:32.757Z,100675.81
2018-08-20T09:19:01.155Z,100683.61
2018-08-20T09:21:29.785Z,100680.91
2018-08-20T09:23:58.222Z,100686.14
2018-08-20T09:26:26.634Z,100683.64
2018-08-20T09:28:55.019Z,100686.14
2018-08-20T09:31:23.466Z,100686.43
2018-08-20T09:33:52.190Z,100688.00
2018-08-20T09:36:20.578Z,100694.87
2018-08-20T09:38:49.159Z,100689.77
2018-08-20T09:41:17.539Z,100684.65
2018-08-20T09:43:46.048Z,100688.47
2018-08-20T09:46:14.356Z,100689.06
2018-08-20T09:48:42.745Z,100693.37
2018-08-20T09:51:11.196Z,100695.37
2018-08-20T09:53:39.934Z,100698.02
2018-08-20T09:56:08.413Z,100700.61
2018-08-20T09:58:36.763Z,100693.58
2018-08-20T10:01:05.175Z,100690.23
2018-08-20T10:03:33.558Z,100694.20
2018-08-20T10:06:01.923Z,100698.34
2018-08-20T10:08:30.376Z,100692.38
2018-08-20T10:10:58.767Z,100690.30
2018-08-20T10:13:27.143Z,100693.30
2018-08-20T10:15:55.498Z,100692.42
2018-08-20T10:18:23.922Z,100697.50
2018-08-20T10:20:52.372Z,100696.55
2018-08-20T10:23:20.776Z,100692.11
2018-08-20T10:25:49.226Z,100689.14
2018-08-20T10:28:17.592Z,100694.16
2018-08-20T10:30:45.986Z,100701.34
2018-08-20T10:33:14.366Z,100701.50
2018-08-20T10:35:42.727Z,100705.17
2018-08-20T10:38:11.153Z,100693.30
2018-08-20T10:40:39.587Z,100696.83
2018-08-20T10:43:08.010Z,100697.80
2018-08-20T10:45:41.699Z,100703.02
2018-08-20T10:48:10.067Z,100703.40
2018-08-20T10:50:38.388Z,100699.31
2018-08-20T10:53:07.050Z,100700.78
2018-08-20T10:55:35.420Z,100706.39
2018-08-20T10:58:03.775Z,100704.98
2018-08-20T11:00:32.118Z,100700.98
2018-08-20T11:03:00.496Z,100704.30
2018-08-20T11:05:28.879Z,100702.49
2018-08-20T11:07:57.313Z,100708.37
2018-08-20T11:10:25.804Z,100707.27
2018-08-20T11:12:54.184Z,100708.73
2018-08-20T11:15:22.638Z,100713.06
2018-08-20T11:17:51.493Z,100711.77
2018-08-20T11:20:20.832Z,100714.64
2018-08-20T11:22:49.327Z,100714.84
2018-08-20T11:25:17.774Z,100713.80
2018-08-20T11:27:46.141Z,100711.98
2018-08-20T11:30:15.365Z,100714.36
2018-08-20T11:32:43.824Z,100717.36
2018-08-20T11:35:12.546Z,100715.80
2018-08-20T11:37:41.019Z,100708.53
2018-08-20T11:40:10.001Z,100715.25
2018-08-20T11:42:38.723Z,100714.08
2018-08-20T11:45:10.273Z,100712.28
2018-08-20T11:47:38.720Z,100711.20
2018-08-20T11:50:07.241Z,100715.34
2018-08-20T11:52:35.856Z,100718.94
2018-08-20T11:55:04.605Z,100715.19
2018-08-20T11:57:33.091Z,100713.45
2018-08-20T12:00:01.564Z,100716.44
2018-08-20T12:02:29.939Z,100711.77
2018-08-20T12:04:58.540Z,100718.94
2018-08-20T12:07:26.920Z,100719.50
2018-08-20T12:09:55.250Z,100722.59
2018-08-20T12:12:23.714Z,100717.23
2018-08-20T12:14:52.120Z,100712.70
2018-08-20T12:17:20.536Z,100715.34
2018-08-20T12:19:48.805Z,100711.97
2018-08-20T12:22:17.298Z,100708.09
2018-08-20T12:24:45.652Z,100711.42
2018-08-20T12:27:14.147Z,100710.69
2018-08-20T12:29:42.496Z,100710.72
2018-08-20T12:32:10.905Z,100711.55
2018-08-20T12:34:39.268Z,100713.59
2018-08-20T12:37:07.720Z,100720.70
2018-08-20T12:39:36.058Z,100718.09
2018-08-20T12:42:04.703Z,100715.67
2018-08-20T12:44:33.063Z,100719.34
2018-08-20T12:47:01.438Z,100718.83
2018-08-20T12:49:29.858Z,100717.68
2018-08-20T12:51:58.255Z,100714.20
2018-08-20T12:54:26.684Z,100710.25
2018-08-20T12:56:55.076Z,100716.78
2018-08-20T12:59:23.429Z,100714.84
2018-08-20T13:01:51.866Z,100716.88
2018-08-20T13:04:20.348Z,100718.09
2018-08-20T13:06:48.770Z,100720.39
2018-08-20T13:09:17.148Z,100719.81
2018-08-20T13:11:45.537Z,100723.64
2018-08-20T13:14:14.474Z,100722.78
2018-08-20T13:16:43.225Z,100725.58
2018-08-20T13:19:11.675Z,100725.88
2018-08-20T13:21:40.595Z,100735.30
2018-08-20T13:24:08.914Z,100720.00
2018-08-20T13:26:37.296Z,100719.72
2018-08-20T13:29:05.734Z,100724.25
2018-08-20T13:31:34.088Z,100723.77
2018-08-20T13:34:02.449Z,100723.62
2018-08-20T13:36:31.295Z,100716.36
2018-08-20T13:38:59.684Z,100719.05
2018-08-20T13:41:28.064Z,100718.88
2018-08-20T13:43:56.656Z,100715.85
2018-08-20T13:46:26.295Z,100721.34
2018-08-20T13:48:54.791Z,100718.88
2018-08-20T13:51:23.172Z,100717.96
2018-08-20T13:53:51.473Z,100722.14
2018-08-20T13:56:19.891Z,100721.17
2018-08-20T13:58:48.265Z,100712.89
2018-08-20T14:01:16.659Z,100716.78
2018-08-20T14:03:45.130Z,100715.51
2018-08-20T14:06:13.602Z,100715.67
2018-08-20T14:08:42.087Z,100715.37
2018-08-20T14:11:10.476Z,100715.00
2018-08-20T14:13:38.856Z,100723.06
2018-08-20T14:16:07.267Z,100729.79
2018-08-20T14:18:35.644Z,100723.92
2018-08-20T14:21:05.095Z,100731.19
2018-08-20T14:23:33.500Z,100729.02
2018-08-20T14:26:02.025Z,100730.30
2018-08-20T14:28:31.048Z,100731.37
2018-08-20T14:30:59.602Z,100725.50
2018-08-20T14:33:28.060Z,100719.84
2018-08-20T14:35:56.455Z,100723.48
2018-08-20T14:38:25.074Z,100725.63
2018-08-20T14:40:54.551Z,100727.70
2018-08-20T14:43:22.942Z,100732.63
2018-08-20T14:45:56.626Z,100735.16
2018-08-20T14:48:25.236Z,100719.23
2018-08-20T14:50:53.651Z,100717.53
2018-08-20T14:53:22.126Z,100721.06
2018-08-20T14:55:50.478Z,100720.14
2018-08-20T14:58:18.837Z,100722.80
2018-08-20T15:00:47.228Z,100717.43
2018-08-20T15:03:15.589Z,100714.65
2018-08-20T15:05:44.047Z,100714.53
2018-08-20T15:08:12.613Z,100724.02
2018-08-20T15:10:41.032Z,100720.30
2018-08-20T15:13:09.408Z,100726.36
2018-08-20T15:15:37.946Z,100725.03
2018-08-20T15:18:08.328Z,100722.48
2018-08-20T15:20:36.778Z,100722.94
2018-08-20T15:23:05.233Z,100721.97
2018-08-20T15:25:33.594Z,100726.97
2018-08-20T15:28:01.924Z,100722.38
2018-08-20T15:30:30.294Z,100724.92
2018-08-20T15:32:58.671Z,100720.19
2018-08-20T15:35:27.230Z,100724.11
2018-08-20T15:37:55.604Z,100725.83
2018-08-20T15:40:23.971Z,100734.63
2018-08-20T15:42:52.353Z,100730.48
2018-08-20T15:45:20.670Z,100727.70
2018-08-20T15:47:49.051Z,100730.72
2018-08-20T15:50:17.591Z,100735.79
2018-08-20T15:52:45.946Z,100730.16
2018-08-20T15:55:14.371Z,100726.45
2018-08-20T15:57:42.732Z,100723.11
2018-08-20T16:00:13.863Z,100728.92
2018-08-20T16:02:43.021Z,100720.84
2018-08-20T16:05:11.628Z,100723.05
2018-08-20T16:07:40.292Z,100727.55
2018-08-20T16:10:10.829Z,100720.82
2018-08-20T16:12:39.462Z,100720.60
2018-08-20T16:15:08.781Z,100723.95
2018-08-20T16:17:37.495Z,100726.78
2018-08-20T16:20:06.254Z,100724.74
2018-08-20T16:22:34.595Z,100722.29
2018-08-20T16:25:02.996Z,100721.17
2018-08-20T16:27:31.378Z,100718.54
2018-08-20T16:30:00.082Z,100718.28
2018-08-20T16:32:28.468Z,100718.06
2018-08-20T16:34:57.481Z,100715.08
2018-08-20T16:37:26.151Z,100712.72
2018-08-20T16:39:54.500Z,100710.50
2018-08-20T16:42:23.305Z,100719.66
2018-08-20T16:44:51.971Z,100725.01
2018-08-20T16:47:20.442Z,100723.22
2018-08-20T16:49:48.855Z,100722.66
2018-08-20T16:52:17.265Z,100715.95
2018-08-20T16:54:45.745Z,100713.82
2018-08-20T16:57:14.382Z,100709.88
2018-08-20T16:59:42.744Z,100708.00
2018-08-20T17:02:30.820Z,100709.95
2018-08-20T17:04:59.282Z,100707.34
2018-08-20T17:07:27.755Z,100708.58
2018-08-20T17:09:56.123Z,100714.79
2018-08-20T17:12:24.516Z,100715.67
2018-08-20T17:14:52.839Z,100713.06
2018-08-20T17:17:21.347Z,100714.09
2018-08-20T17:19:50.651Z,100720.55
2018-08-20T17:22:19.555Z,100721.67
2018-08-20T17:24:55.022Z,100721.20
2018-08-20T17:27:23.497Z,100724.64
2018-08-20T17:29:53.983Z,100733.21
2018-08-20T17:32:22.451Z,100728.38
2018-08-20T17:34:50.834Z,100735.30
2018-08-20T17:37:19.251Z,100736.24
2018-08-20T17:39:59.488Z,100733.28
2018-08-20T17:42:29.109Z,100737.94
2018-08-20T17:44:57.936Z,100736.98
2018-08-20T17:47:27.302Z,100740.92
2018-08-20T17:49:57.006Z,100739.27
2018-08-20T17:52:40.533Z,100740.69
2018-08-20T17:55:09.044Z,100744.52
2018-08-20T17:57:37.452Z,100745.53
2018-08-20T18:00:27.576Z,100748.32
2018-08-20T18:02:55.971Z,100743.59
2018-08-20T18:05:25.379Z,100746.20
2018-08-20T18:07:54.584Z,100746.56
2018-08-20T18:10:22.918Z,100746.95
2018-08-20T18:12:51.294Z,100751.61
2018-08-20T18:15:19.699Z,100743.52
2018-08-20T18:17:48.068Z,100750.30
2018-08-20T18:20:16.398Z,100743.58
2018-08-20T18:22:45.408Z,100752.18
2018-08-20T18:25:13.780Z,100750.31
2018-08-20T18:27:44.071Z,100748.70
2018-08-20T18:30:13.822Z,100749.70
2018-08-20T18:32:43.672Z,100760.34
2018-08-20T18:35:12.541Z,100764.61
2018-08-20T18:37:51.197Z,100767.60
2018-08-20T18:40:19.722Z,100771.80
2018-08-20T18:42:49.349Z,100776.45
2018-08-20T18:45:17.868Z,100775.98
2018-08-20T18:47:46.688Z,100781.48
2018-08-20T18:50:15.323Z,100788.55
2018-08-20T18:52:46.700Z,100790.30
2018-08-20T18:55:21.743Z,100792.16
2018-08-20T18:57:55.205Z,100801.48
2018-08-20T19:00:26.624Z,100806.49
2018-08-20T19:02:58.123Z,100805.55
2018-08-20T19:05:26.665Z,100807.98
2018-08-20T19:07:58.698Z,100813.28
2018-08-20T19:10:32.006Z,100812.61
2018-08-20T19:13:01.856Z,100809.45
2018-08-20T19:18:30.843Z,100810.55
2018-08-20T19:21:00.228Z,100815.95
2018-08-20T19:23:30.297Z,100816.51
2018-08-20T19:25:59.233Z,100815.20
2018-08-20T19:28:27.995Z,100813.86
2018-08-20T19:30:59.569Z,100818.02
2018-08-20T19:33:30.814Z,100820.83
2018-08-20T19:36:00.860Z,100819.64
2018-08-20T19:41:10.237Z,100820.75
2018-08-20T19:43:56.528Z,100816.01
2018-08-20T19:46:31.203Z,100813.52
2018-08-20T19:49:05.136Z,100810.70
2018-08-20T19:51:34.495Z,100814.55
2018-08-20T19:54:03.346Z,100811.23
2018-08-20T19:56:32.037Z,100817.42
2018-08-20T19:59:00.432Z,100814.08
2018-08-20T20:01:28.823Z,100820.80
2018-08-20T20:03:58.639Z,100820.40
2018-08-20T20:06:28.393Z,100815.64
2018-08-20T20:08:57.600Z,100824.83
2018-08-20T20:11:28.924Z,100814.39
2018-08-20T20:14:01.804Z,100823.91
2018-08-20T20:16:37.918Z,100828.03
2018-08-20T20:19:06.466Z,100828.10
2018-08-20T20:21:35.330Z,100825.69
2018-08-20T20:24:03.748Z,100827.45
2018-08-20T20:26:32.637Z,100829.95
2018-08-20T20:29:01.031Z,100833.49
2018-08-20T20:31:29.471Z,100838.52
2018-08-20T20:33:58.271Z,100842.31
2018-08-20T20:36:29.026Z,100845.67
2018-08-20T20:38:57.583Z,100844.81
2018-08-20T20:41:27.015Z,100840.87
2018-08-20T20:43:55.473Z,100845.54
2018-08-20T20:46:24.521Z,100854.72
2018-08-20T20:48:53.161Z,100853.93
2018-08-20T20:51:21.627Z,100857.91
2018-08-20T20:53:50.544Z,100853.64
2018-08-20T20:56:19.405Z,100861.52
2018-08-20T20:58:48.154Z,100855.27
2018-08-20T21:01:17.361Z,100864.73
2018-08-20T21:03:46.130Z,100865.67
2018-08-20T21:06:14.787Z,100862.53
2018-08-20T21:08:47.049Z,100861.23
2018-08-20T21:11:16.244Z,100856.92
2018-08-20T21:13:48.552Z,100861.70
2018-08-20T21:16:19.896Z,100868.27
2018-08-20T21:18:55.197Z,100874.56
2018-08-20T21:21:23.988Z,100871.42
2018-08-20T21:23:52.388Z,100874.56
2018-08-20T21:26:20.897Z,100872.35
2018-08-20T21:28:51.204Z,100869.90
2018-08-20T21:31:20.911Z,100874.63
2018-08-20T21:33:53.381Z,100872.72
2018-08-20T21:36:21.990Z,100871.95
2018-08-20T21:38:50.380Z,100873.80
2018-08-20T21:41:23.433Z,100874.63
2018-08-20T21:43:52.119Z,100868.38
2018-08-20T21:46:20.986Z,100874.52
2018-08-20T21:48:49.638Z,100866.73
2018-08-20T21:51:24.982Z,100868.11
2018-08-20T21:53:55.229Z,100866.27
2018-08-20T21:56:23.627Z,100867.03
2018-08-20T21:58:51.997Z,100873.67
2018-08-20T22:01:20.546Z,100878.88
2018-08-20T22:03:48.890Z,100878.11
2018-08-20T22:06:17.393Z,100882.02
2018-08-20T22:08:45.793Z,100892.13
2018-08-20T22:11:14.195Z,100893.06
2018-08-20T22:13:42.667Z,100895.11
2018-08-20T22:16:17.087Z,100899.34
2018-08-20T22:18:47.252Z,100905.95
2018-08-20T22:21:17.787Z,100907.34
2018-08-20T22:23:46.878Z,100897.63
2018-08-20T22:26:19.506Z,100901.39
2018-08-20T22:28:49.997Z,100902.28
2018-08-20T22:31:18.512Z,100902.58
2018-08-20T22:33:56.004Z,100908.20
2018-08-20T22:36:24.849Z,100904.30
2018-08-20T22:38:55.318Z,100902.39
2018-08-20T22:41:25.634Z,100904.66
2018-08-20T22:43:53.982Z,100905.59
2018-08-20T22:46:22.980Z,100907.66
2018-08-20T22:48:52.924Z,100908.42
2018-08-20T22:51:21.825Z,100907.03
2018-08-20T22:53:52.643Z,100904.36
2018-08-20T22:56:24.132Z,100909.09
2018-08-20T22:58:52.953Z,100909.27
2018-08-20T23:01:21.397Z,100906.50
2018-08-20T23:03:49.755Z,100911.27
2018-08-20T23:06:18.103Z,100911.87
2018-08-20T23:08:48.049Z,100910.57
2018-08-20T23:11:26.458Z,100910.34
2018-08-20T23:13:54.999Z,100905.44
2018-08-20T23:16:23.376Z,100911.87
2018-08-20T23:18:52.305Z,100913.17
2018-08-20T23:21:20.777Z,100914.47
2018-08-20T23:23:49.144Z,100916.14
2018-08-20T23:26:17.588Z,100912.41
2018-08-20T23:28:45.950Z,100914.47
2018-08-20T23:31:14.552Z,100916.44
2018-08-20T23:33:42.904Z,100911.70
2018-08-20T23:36:11.221Z,100926.47
2018-08-20T23:38:39.604Z,100928.06
2018-08-20T23:41:08.081Z,100922.80
2018-08-20T23:43:36.542Z,100923.16
2018-08-20T23:46:04.940Z,100919.95
2018-08-20T23:48:33.340Z,100923.70
2018-08-20T23:51:06.670Z,100924.93
2018-08-20T23:53:35.046Z,100926.83
2018-08-20T23:56:03.442Z,100929.52
2018-08-20T23:58:31.874Z,100932.19
